Terminal Aerodrome Forecast
Issued by NWS Corpus Christi, TX

Home | Current Version | Previous Version | Text Only | Print | Product List | Glossary On
Versions: 1 2 3 4 5 6 7 8 9 10 11 12
000
FTUS44 KCRP 182333
TAFVCT
TAF
KVCT 182333Z 1900/1924 16005KT P6SM SKC
     FM190300 13006KT P6SM SCT025 BKN250
     FM190900 04002KT 5SM BR SCT020 BKN250
      TEMPO 1910/1914 BKN020 OVC250
     FM191400 05005KT P6SM VCSH BKN025 BKN250
     FM191600 09008KT P6SM VCSH BKN035 BKN150 PROB30 1920/1922
      VRB15G25KT 5SM -TSRA OVC035CB
     FM192200 11010G15KT P6SM SCT040 BKN200=

USA.gov is the U.S. government's official web portal to all federal, state and local government web resources and services.